Time,TemperatureF,DewpointF,PressureIn,WindDirection,WindDirectionDegrees,WindSpeedMPH,WindSpeedGustMPH,Humidity,HourlyPrecipIn,Conditions,Clouds,dailyrainin,SoftwareType,DateUTC
2013-10-07 00:02:00,41.2,37.9,29.95,WNW,297,4.0,7.0,88,0.00,,,0.00,Wunderground v.1.15,2013-10-07 05:02:00,
2013-10-07 00:09:00,41.4,38.1,29.95,West,278,4.0,7.0,88,0.00,,,0.00,Wunderground v.1.15,2013-10-07 05:09:00,
2013-10-07 00:14:00,41.3,38.0,29.95,WNW,288,4.0,8.0,88,0.00,,,0.00,Wunderground v.1.15,2013-10-07 05:14:00,
2013-10-07 00:20:00,41.0,38.0,29.95,West,279,6.0,8.0,89,0.00,,,0.00,Wunderground v.1.15,2013-10-07 05:20:00,
2013-10-07 00:26:00,40.7,37.7,29.95,WNW,286,3.0,9.0,89,0.00,,,0.00,Wunderground v.1.15,2013-10-07 05:26:00,
2013-10-07 00:31:00,40.4,37.7,29.95,WNW,282,4.0,6.0,90,0.00,,,0.00,Wunderground v.1.15,2013-10-07 05:31:00,
2013-10-07 00:37:00,40.5,38.1,29.95,WNW,287,7.0,7.0,91,0.00,,,0.00,Wunderground v.1.15,2013-10-07 05:37:00,
2013-10-07 00:43:00,40.8,38.4,29.95,WNW,288,5.0,7.0,91,0.00,,,0.00,Wunderground v.1.15,2013-10-07 05:43:00,
2013-10-07 00:49:00,41.2,38.5,29.95,WNW,284,7.0,7.0,90,0.00,,,0.00,Wunderground v.1.15,2013-10-07 05:49:00,
2013-10-07 00:54:00,41.1,38.4,29.95,WNW,289,4.0,7.0,90,0.00,,,0.00,Wunderground v.1.15,2013-10-07 05:54:00,
2013-10-07 01:00:00,41.0,38.3,29.95,WNW,285,7.0,7.0,90,0.00,,,0.00,Wunderground v.1.15,2013-10-07 06:00:00,
2013-10-07 01:05:00,40.9,38.2,29.95,West,279,6.0,7.0,90,0.00,,,0.00,Wunderground v.1.15,2013-10-07 06:05:00,
2013-10-07 01:11:00,40.9,38.2,29.95,WNW,300,5.0,7.0,90,0.00,,,0.00,Wunderground v.1.15,2013-10-07 06:11:00,
2013-10-07 01:16:00,41.1,38.4,29.95,West,274,7.0,7.0,90,0.00,,,0.00,Wunderground v.1.15,2013-10-07 06:16:00,
2013-10-07 01:22:00,41.2,38.5,29.96,West,270,7.0,9.0,90,0.00,,,0.00,Wunderground v.1.15,2013-10-07 06:22:00,
2013-10-07 01:28:00,41.1,38.4,29.96,WNW,289,5.0,8.0,90,0.00,,,0.00,Wunderground v.1.15,2013-10-07 06:28:00,
2013-10-07 01:34:00,40.9,38.2,29.96,West,279,8.0,8.0,90,0.00,,,0.00,Wunderground v.1.15,2013-10-07 06:34:00,
2013-10-07 01:39:00,40.7,38.0,29.96,West,267,9.0,9.0,90,0.00,,,0.00,Wunderground v.1.15,2013-10-07 06:39:00,
2013-10-07 01:45:00,40.9,38.5,29.96,West,263,7.0,9.0,91,0.00,,,0.00,Wunderground v.1.15,2013-10-07 06:45:00,
2013-10-07 01:51:00,41.1,38.4,29.96,West,268,8.0,8.0,90,0.00,,,0.00,Wunderground v.1.15,2013-10-07 06:51:00,
2013-10-07 01:57:00,41.1,38.4,29.96,West,260,7.0,7.0,90,0.00,,,0.00,Wunderground v.1.15,2013-10-07 06:57:00,
2013-10-07 02:02:00,41.1,38.1,29.96,West,279,3.0,9.0,89,0.00,,,0.00,Wunderground v.1.15,2013-10-07 07:02:00,
2013-10-07 02:08:00,41.2,38.2,29.96,WNW,286,6.0,7.0,89,0.00,,,0.00,Wunderground v.1.15,2013-10-07 07:08:00,
2013-10-07 02:13:00,41.3,38.3,29.95,West,274,6.0,8.0,89,0.00,,,0.00,Wunderground v.1.15,2013-10-07 07:13:00,
2013-10-07 02:18:00,41.4,38.1,29.96,WNW,284,7.0,8.0,88,0.00,,,0.00,Wunderground v.1.15,2013-10-07 07:18:00,
2013-10-07 02:23:00,41.2,37.9,29.95,West,279,6.0,8.0,88,0.00,,,0.00,Wunderground v.1.15,2013-10-07 07:23:00,
2013-10-07 02:28:00,40.8,37.8,29.95,West,280,4.0,7.0,89,0.00,,,0.00,Wunderground v.1.15,2013-10-07 07:28:00,
2013-10-07 02:33:00,40.5,37.5,29.95,WNW,292,5.0,8.0,89,0.00,,,0.00,Wunderground v.1.15,2013-10-07 07:33:00,
2013-10-07 02:38:00,40.2,37.5,29.94,WNW,286,6.0,7.0,90,0.00,,,0.00,Wunderground v.1.15,2013-10-07 07:38:00,
2013-10-07 02:43:00,40.1,37.4,29.94,West,279,6.0,8.0,90,0.00,,,0.00,Wunderground v.1.15,2013-10-07 07:43:00,
2013-10-07 02:48:00,40.1,37.4,29.94,WNW,289,5.0,7.0,90,0.00,,,0.00,Wunderground v.1.15,2013-10-07 07:48:00,
2013-10-07 02:53:00,40.1,37.4,29.94,West,275,4.0,9.0,90,0.00,,,0.00,Wunderground v.1.15,2013-10-07 07:53:00,
2013-10-07 02:58:00,40.1,37.4,29.94,West,269,6.0,7.0,90,0.00,,,0.00,Wunderground v.1.15,2013-10-07 07:58:00,
2013-10-07 03:03:00,40.0,37.3,29.94,WNW,284,4.0,7.0,90,0.00,,,0.00,Wunderground v.1.15,2013-10-07 08:03:00,
2013-10-07 03:08:00,39.8,37.1,29.94,West,279,4.0,6.0,90,0.00,,,0.00,Wunderground v.1.15,2013-10-07 08:08:00,
2013-10-07 03:13:00,39.7,37.0,29.95,West,281,4.0,7.0,90,0.00,,,0.00,Wunderground v.1.15,2013-10-07 08:13:00,
2013-10-07 03:18:00,39.6,37.2,29.95,WNW,284,7.0,7.0,91,0.00,,,0.00,Wunderground v.1.15,2013-10-07 08:18:00,
2013-10-07 03:23:00,39.7,37.3,29.94,WNW,282,7.0,7.0,91,0.00,,,0.00,Wunderground v.1.15,2013-10-07 08:23:00,
2013-10-07 03:29:00,39.7,37.0,29.94,West,281,4.0,6.0,90,0.00,,,0.00,Wunderground v.1.15,2013-10-07 08:29:00,
2013-10-07 03:34:00,39.7,37.0,29.94,WNW,294,5.0,8.0,90,0.00,,,0.00,Wunderground v.1.15,2013-10-07 08:34:00,
2013-10-07 03:39:00,39.7,37.0,29.94,West,271,4.0,7.0,90,0.00,,,0.00,Wunderground v.1.15,2013-10-07 08:39:00,
2013-10-07 03:44:00,39.8,37.1,29.94,West,281,6.0,8.0,90,0.00,,,0.00,Wunderground v.1.15,2013-10-07 08:44:00,
2013-10-07 03:49:00,39.7,37.0,29.94,West,281,7.0,8.0,90,0.00,,,0.00,Wunderground v.1.15,2013-10-07 08:49:00,
2013-10-07 03:54:00,39.8,37.1,29.94,West,273,6.0,9.0,90,0.00,,,0.00,Wunderground v.1.15,2013-10-07 08:54:00,
2013-10-07 03:59:00,40.0,37.6,29.95,West,267,8.0,8.0,91,0.00,,,0.00,Wunderground v.1.15,2013-10-07 08:59:00,
2013-10-07 04:04:00,40.2,37.8,29.94,West,263,6.0,10.0,91,0.00,,,0.00,Wunderground v.1.15,2013-10-07 09:04:00,
2013-10-07 04:09:00,40.5,37.8,29.94,West,268,6.0,9.0,90,0.00,,,0.00,Wunderground v.1.15,2013-10-07 09:09:00,
2013-10-07 04:14:00,40.6,37.9,29.94,West,268,6.0,9.0,90,0.00,,,0.00,Wunderground v.1.15,2013-10-07 09:14:00,
2013-10-07 04:19:00,40.6,37.9,29.95,West,280,3.0,7.0,90,0.00,,,0.00,Wunderground v.1.15,2013-10-07 09:19:00,
2013-10-07 04:24:00,40.5,37.8,29.95,West,259,7.0,8.0,90,0.00,,,0.00,Wunderground v.1.15,2013-10-07 09:24:00,
2013-10-07 04:29:00,40.5,37.8,29.95,West,265,4.0,8.0,90,0.00,,,0.00,Wunderground v.1.15,2013-10-07 09:29:00,
2013-10-07 04:34:00,40.4,37.7,29.95,West,269,6.0,8.0,90,0.00,,,0.00,Wunderground v.1.15,2013-10-07 09:34:00,
2013-10-07 04:39:00,40.4,37.7,29.94,West,265,7.0,8.0,90,0.00,,,0.00,Wunderground v.1.15,2013-10-07 09:39:00,
2013-10-07 04:44:00,40.4,37.7,29.94,West,270,6.0,8.0,90,0.00,,,0.00,Wunderground v.1.15,2013-10-07 09:44:00,
2013-10-07 04:49:00,40.4,37.7,29.94,West,281,7.0,8.0,90,0.00,,,0.00,Wunderground v.1.15,2013-10-07 09:49:00,
2013-10-07 04:54:00,40.2,37.5,29.94,WNW,286,4.0,8.0,90,0.00,,,0.00,Wunderground v.1.15,2013-10-07 09:54:00,
2013-10-07 04:59:00,40.1,37.7,29.94,West,272,7.0,8.0,91,0.00,,,0.00,Wunderground v.1.15,2013-10-07 09:59:00,
2013-10-07 05:04:00,40.2,37.8,29.95,West,271,7.0,10.0,91,0.00,,,0.00,Wunderground v.1.15,2013-10-07 10:04:00,
2013-10-07 05:09:00,40.3,37.9,29.95,West,270,4.0,8.0,91,0.00,,,0.00,Wunderground v.1.15,2013-10-07 10:09:00,
2013-10-07 05:14:00,40.2,37.8,29.95,WSW,254,4.0,9.0,91,0.00,,,0.00,Wunderground v.1.15,2013-10-07 10:14:00,
2013-10-07 05:19:00,40.2,37.8,29.95,West,260,7.0,9.0,91,0.00,,,0.00,Wunderground v.1.15,2013-10-07 10:19:00,
2013-10-07 05:24:00,40.2,37.8,29.95,WSW,257,8.0,10.0,91,0.00,,,0.00,Wunderground v.1.15,2013-10-07 10:24:00,
2013-10-07 05:29:00,40.2,37.8,29.95,West,265,9.0,10.0,91,0.00,,,0.00,Wunderground v.1.15,2013-10-07 10:29:00,
2013-10-07 05:34:00,40.2,37.8,29.95,West,272,9.0,10.0,91,0.00,,,0.00,Wunderground v.1.15,2013-10-07 10:34:00,
2013-10-07 05:39:00,40.2,37.8,29.95,WSW,255,7.0,10.0,91,0.00,,,0.00,Wunderground v.1.15,2013-10-07 10:39:00,
2013-10-07 05:44:00,40.1,37.7,29.95,West,271,7.0,10.0,91,0.00,,,0.00,Wunderground v.1.15,2013-10-07 10:44:00,
2013-10-07 05:49:00,40.1,37.7,29.95,WSW,258,9.0,10.0,91,0.00,,,0.00,Wunderground v.1.15,2013-10-07 10:49:00,
2013-10-07 05:54:00,40.2,38.1,29.95,WSW,257,7.0,11.0,92,0.00,,,0.00,Wunderground v.1.15,2013-10-07 10:54:00,
2013-10-07 05:59:00,40.4,38.3,29.95,West,262,8.0,10.0,92,0.00,,,0.00,Wunderground v.1.15,2013-10-07 10:59:00,
2013-10-07 06:04:00,40.5,38.4,29.95,WSW,247,7.0,10.0,92,0.00,,,0.00,Wunderground v.1.15,2013-10-07 11:04:00,
2013-10-07 06:09:00,40.7,38.6,29.95,West,279,8.0,11.0,92,0.00,,,0.00,Wunderground v.1.15,2013-10-07 11:09:00,
2013-10-07 06:14:00,41.0,38.9,29.95,West,278,8.0,13.0,92,0.00,,,0.00,Wunderground v.1.15,2013-10-07 11:14:00,
2013-10-07 06:19:00,41.3,39.2,29.95,West,273,7.0,11.0,92,0.00,,,0.00,Wunderground v.1.15,2013-10-07 11:19:00,
2013-10-07 06:24:00,41.4,39.3,29.95,West,265,10.0,12.0,92,0.00,,,0.00,Wunderground v.1.15,2013-10-07 11:24:00,
2013-10-07 06:30:00,41.5,39.1,29.95,West,272,10.0,13.0,91,0.00,,,0.00,Wunderground v.1.15,2013-10-07 11:30:00,
2013-10-07 06:35:00,41.6,39.2,29.95,West,272,8.0,13.0,91,0.00,,,0.00,Wunderground v.1.15,2013-10-07 11:35:00,
2013-10-07 06:40:00,41.6,39.2,29.95,West,261,6.0,12.0,91,0.00,,,0.00,Wunderground v.1.15,2013-10-07 11:40:00,
2013-10-07 06:45:00,41.5,39.1,29.95,West,263,7.0,12.0,91,0.00,,,0.00,Wunderground v.1.15,2013-10-07 11:45:00,
2013-10-07 06:50:00,41.5,39.1,29.95,West,267,7.0,11.0,91,0.00,,,0.00,Wunderground v.1.15,2013-10-07 11:50:00,
2013-10-07 06:55:00,41.5,39.1,29.95,West,277,11.0,13.0,91,0.00,,,0.00,Wunderground v.1.15,2013-10-07 11:55:00,
2013-10-07 07:00:00,41.5,39.1,29.95,West,269,7.0,12.0,91,0.00,,,0.00,Wunderground v.1.15,2013-10-07 12:00:00,
2013-10-07 07:05:00,41.4,39.0,29.95,West,263,12.0,12.0,91,0.00,,,0.00,Wunderground v.1.15,2013-10-07 12:05:00,
2013-10-07 07:10:00,41.3,38.9,29.96,West,263,9.0,13.0,91,0.00,,,0.00,Wunderground v.1.15,2013-10-07 12:10:00,
2013-10-07 07:15:00,41.2,38.8,29.96,West,267,7.0,13.0,91,0.00,,,0.00,Wunderground v.1.15,2013-10-07 12:15:00,
2013-10-07 07:20:00,41.1,38.7,29.96,West,269,10.0,12.0,91,0.00,,,0.00,Wunderground v.1.15,2013-10-07 12:20:00,
2013-10-07 07:25:00,41.1,38.7,29.96,West,264,11.0,12.0,91,0.00,,,0.00,Wunderground v.1.15,2013-10-07 12:25:00,
2013-10-07 07:30:00,41.1,38.7,29.96,West,263,7.0,14.0,91,0.00,,,0.00,Wunderground v.1.15,2013-10-07 12:30:00,
2013-10-07 07:35:00,41.1,38.7,29.96,West,269,8.0,14.0,91,0.00,,,0.00,Wunderground v.1.15,2013-10-07 12:35:00,
2013-10-07 07:40:00,41.0,38.9,29.96,West,271,7.0,9.0,92,0.00,,,0.00,Wunderground v.1.15,2013-10-07 12:40:00,
2013-10-07 07:45:00,41.0,38.6,29.96,West,273,6.0,10.0,91,0.00,,,0.00,Wunderground v.1.15,2013-10-07 12:45:00,
2013-10-07 07:50:00,41.0,38.9,29.96,West,275,9.0,11.0,92,0.00,,,0.00,Wunderground v.1.15,2013-10-07 12:50:00,
2013-10-07 07:55:00,41.2,39.1,29.96,West,277,10.0,11.0,92,0.00,,,0.00,Wunderground v.1.15,2013-10-07 12:55:00,
2013-10-07 08:00:00,41.4,39.0,29.97,West,279,7.0,12.0,91,0.00,,,0.00,Wunderground v.1.15,2013-10-07 13:00:00,
2013-10-07 08:05:00,41.6,39.2,29.97,West,270,10.0,12.0,91,0.00,,,0.00,Wunderground v.1.15,2013-10-07 13:05:00,
2013-10-07 08:10:00,41.6,39.2,29.97,WNW,286,6.0,10.0,91,0.00,,,0.00,Wunderground v.1.15,2013-10-07 13:10:00,
2013-10-07 08:15:00,41.9,39.7,29.97,West,263,8.0,11.0,92,0.00,,,0.00,Wunderground v.1.15,2013-10-07 13:15:00,
2013-10-07 08:20:00,42.2,39.8,29.98,WSW,257,8.0,13.0,91,0.00,,,0.00,Wunderground v.1.15,2013-10-07 13:20:00,
2013-10-07 08:25:00,42.7,40.3,29.98,West,278,8.0,13.0,91,0.00,,,0.00,Wunderground v.1.15,2013-10-07 13:25:00,
2013-10-07 08:30:00,43.1,40.4,29.98,WNW,284,9.0,10.0,90,0.00,,,0.00,Wunderground v.1.15,2013-10-07 13:30:00,
2013-10-07 08:35:00,43.6,40.9,29.98,WNW,292,9.0,11.0,90,0.00,,,0.00,Wunderground v.1.15,2013-10-07 13:35:00,
2013-10-07 08:40:00,44.1,41.4,29.98,West,267,9.0,10.0,90,0.00,,,0.00,Wunderground v.1.15,2013-10-07 13:40:00,
2013-10-07 08:45:00,44.5,41.7,29.99,NW,317,8.0,10.0,90,0.00,,,0.00,Wunderground v.1.15,2013-10-07 13:45:00,
2013-10-07 08:50:00,45.0,42.2,30.00,NNW,338,6.0,9.0,90,0.00,,,0.00,Wunderground v.1.15,2013-10-07 13:50:00,
2013-10-07 08:55:00,45.4,42.1,29.99,WNW,292,4.0,11.0,88,0.00,,,0.00,Wunderground v.1.15,2013-10-07 13:55:00,
2013-10-07 09:00:00,45.4,42.1,30.00,West,276,6.0,10.0,88,0.00,,,0.00,Wunderground v.1.15,2013-10-07 14:00:00,
2013-10-07 09:05:00,45.7,42.6,30.00,West,267,6.0,10.0,89,0.00,,,0.00,Wunderground v.1.15,2013-10-07 14:05:00,
2013-10-07 09:10:00,46.2,42.5,30.00,NW,311,6.0,8.0,87,0.00,,,0.00,Wunderground v.1.15,2013-10-07 14:10:00,
2013-10-07 09:15:00,46.7,43.3,30.00,West,272,9.0,9.0,88,0.00,,,0.00,Wunderground v.1.15,2013-10-07 14:15:00,
2013-10-07 09:20:00,47.3,43.6,30.00,West,271,6.0,9.0,87,0.00,,,0.00,Wunderground v.1.15,2013-10-07 14:20:00,
2013-10-07 09:25:00,47.8,43.8,30.00,West,279,4.0,12.0,86,0.00,,,0.00,Wunderground v.1.15,2013-10-07 14:25:00,
2013-10-07 09:30:00,48.5,43.9,30.00,West,265,12.0,12.0,84,0.00,,,0.00,Wunderground v.1.15,2013-10-07 14:30:00,
2013-10-07 09:36:00,48.8,43.9,30.01,West,259,8.0,14.0,83,0.00,,,0.00,Wunderground v.1.15,2013-10-07 14:36:00,
2013-10-07 09:41:00,49.3,44.0,30.01,West,280,9.0,13.0,82,0.00,,,0.00,Wunderground v.1.15,2013-10-07 14:41:00,
2013-10-07 09:45:00,49.9,44.9,30.01,West,271,8.0,13.0,83,0.00,,,0.00,Wunderground v.1.15,2013-10-07 14:45:00,
2013-10-07 09:51:00,50.5,45.2,30.01,West,274,9.0,11.0,82,0.00,,,0.00,Wunderground v.1.15,2013-10-07 14:51:00,
2013-10-07 09:56:00,50.9,44.9,30.01,West,275,10.0,13.0,80,0.00,,,0.00,Wunderground v.1.15,2013-10-07 14:56:00,
2013-10-07 10:01:00,51.3,45.3,30.01,West,271,7.0,11.0,80,0.00,,,0.00,Wunderground v.1.15,2013-10-07 15:01:00,
2013-10-07 10:06:00,51.6,45.3,30.01,West,272,6.0,11.0,79,0.00,,,0.00,Wunderground v.1.15,2013-10-07 15:06:00,
2013-10-07 10:11:00,52.1,45.8,30.01,West,273,11.0,12.0,79,0.00,,,0.00,Wunderground v.1.15,2013-10-07 15:11:00,
2013-10-07 10:16:00,52.3,46.0,30.01,WSW,248,5.0,12.0,79,0.00,,,0.00,Wunderground v.1.15,2013-10-07 15:16:00,
2013-10-07 10:21:00,52.8,46.1,30.01,West,261,4.0,10.0,78,0.00,,,0.00,Wunderground v.1.15,2013-10-07 15:21:00,
2013-10-07 10:26:00,53.4,46.4,30.01,WSW,246,4.0,10.0,77,0.00,,,0.00,Wunderground v.1.15,2013-10-07 15:26:00,
2013-10-07 10:31:00,53.8,46.1,30.01,WNW,284,6.0,10.0,75,0.00,,,0.00,Wunderground v.1.15,2013-10-07 15:31:00,
2013-10-07 10:36:00,54.0,46.3,30.01,WNW,286,7.0,10.0,75,0.00,,,0.00,Wunderground v.1.15,2013-10-07 15:36:00,
2013-10-07 10:41:00,54.1,46.0,30.01,WNW,282,4.0,10.0,74,0.00,,,0.00,Wunderground v.1.15,2013-10-07 15:41:00,
2013-10-07 10:46:00,54.5,46.4,30.01,West,265,3.0,10.0,74,0.00,,,0.00,Wunderground v.1.15,2013-10-07 15:46:00,
2013-10-07 10:51:00,55.0,46.5,30.01,WNW,290,3.0,9.0,73,0.00,,,0.00,Wunderground v.1.15,2013-10-07 15:51:00,
2013-10-07 10:56:00,55.7,47.9,30.01,West,272,7.0,7.0,75,0.00,,,0.00,Wunderground v.1.15,2013-10-07 15:56:00,
2013-10-07 11:02:00,56.1,46.8,30.01,West,273,4.0,10.0,71,0.00,,,0.00,Wunderground v.1.15,2013-10-07 16:02:00,
2013-10-07 11:07:00,56.4,46.7,30.01,WNW,298,5.0,5.0,70,0.00,,,0.00,Wunderground v.1.15,2013-10-07 16:07:00,
2013-10-07 11:12:00,56.9,47.2,30.01,WNW,302,8.0,8.0,70,0.00,,,0.00,Wunderground v.1.15,2013-10-07 16:12:00,
2013-10-07 11:17:00,57.2,47.1,30.01,WNW,297,5.0,7.0,69,0.00,,,0.00,Wunderground v.1.15,2013-10-07 16:17:00,
2013-10-07 11:22:00,57.7,46.8,30.01,WNW,286,3.0,9.0,67,0.00,,,0.00,Wunderground v.1.15,2013-10-07 16:22:00,
2013-10-07 11:27:00,58.2,47.3,30.01,WNW,285,6.0,8.0,67,0.00,,,0.00,Wunderground v.1.15,2013-10-07 16:27:00,
2013-10-07 11:32:00,58.5,47.6,30.01,West,273,4.0,8.0,67,0.00,,,0.00,Wunderground v.1.15,2013-10-07 16:32:00,
2013-10-07 11:37:00,58.8,47.5,30.01,WSW,242,4.0,7.0,66,0.00,,,0.00,Wunderground v.1.15,2013-10-07 16:37:00,
2013-10-07 11:42:00,59.2,47.8,30.01,West,263,7.0,10.0,66,0.00,,,0.00,Wunderground v.1.15,2013-10-07 16:42:00,
2013-10-07 11:47:00,59.6,47.8,30.01,SW,236,7.0,9.0,65,0.00,,,0.00,Wunderground v.1.15,2013-10-07 16:47:00,
2013-10-07 11:52:00,59.9,48.1,30.01,WNW,296,5.0,9.0,65,0.00,,,0.00,Wunderground v.1.15,2013-10-07 16:52:00,
2013-10-07 11:57:00,60.3,48.5,30.01,SW,227,7.0,9.0,65,0.00,,,0.00,Wunderground v.1.15,2013-10-07 16:57:00,
2013-10-07 12:02:00,60.7,48.0,30.01,SSW,213,4.0,10.0,63,0.00,,,0.00,Wunderground v.1.15,2013-10-07 17:02:00,
2013-10-07 12:07:00,61.2,47.6,30.01,West,265,3.0,6.0,61,0.00,,,0.00,Wunderground v.1.15,2013-10-07 17:07:00,
2013-10-07 12:12:00,61.4,47.8,30.01,West,265,4.0,10.0,61,0.00,,,0.00,Wunderground v.1.15,2013-10-07 17:12:00,
2013-10-07 12:17:00,61.8,49.1,30.01,WSW,242,4.0,7.0,63,0.00,,,0.00,Wunderground v.1.15,2013-10-07 17:17:00,
2013-10-07 12:22:00,62.3,48.7,30.01,WSW,254,8.0,12.0,61,0.00,,,0.00,Wunderground v.1.15,2013-10-07 17:22:00,
2013-10-07 12:27:00,62.8,49.6,30.00,SW,235,7.0,9.0,62,0.00,,,0.00,Wunderground v.1.15,2013-10-07 17:27:00,
2013-10-07 12:32:00,63.2,48.6,30.00,WSW,241,4.0,9.0,59,0.00,,,0.00,Wunderground v.1.15,2013-10-07 17:32:00,
2013-10-07 12:37:00,63.7,50.0,30.00,WSW,257,9.0,11.0,61,0.00,,,0.00,Wunderground v.1.15,2013-10-07 17:37:00,
2013-10-07 12:42:00,64.1,49.9,30.00,WSW,238,8.0,11.0,60,0.00,,,0.00,Wunderground v.1.15,2013-10-07 17:42:00,
2013-10-07 12:47:00,64.6,49.9,30.00,SW,219,8.0,10.0,59,0.00,,,0.00,Wunderground v.1.15,2013-10-07 17:47:00,
2013-10-07 12:52:00,64.8,49.7,30.00,SW,227,5.0,12.0,58,0.00,,,0.00,Wunderground v.1.15,2013-10-07 17:52:00,
2013-10-07 12:57:00,65.1,49.5,30.00,WSW,246,3.0,7.0,57,0.00,,,0.00,Wunderground v.1.15,2013-10-07 17:57:00,
2013-10-07 13:02:00,65.4,49.3,30.00,SW,227,8.0,11.0,56,0.00,,,0.00,Wunderground v.1.15,2013-10-07 18:02:00,
2013-10-07 13:07:00,65.9,49.3,30.00,West,267,8.0,10.0,55,0.00,,,0.00,Wunderground v.1.15,2013-10-07 18:07:00,
2013-10-07 13:12:00,66.1,49.5,30.00,SW,231,10.0,10.0,55,0.00,,,0.00,Wunderground v.1.15,2013-10-07 18:12:00,
2013-10-07 13:17:00,66.4,50.2,29.99,SSW,211,8.0,8.0,56,0.00,,,0.00,Wunderground v.1.15,2013-10-07 18:17:00,
2013-10-07 13:23:00,67.0,50.3,29.99,WSW,242,6.0,12.0,55,0.00,,,0.00,Wunderground v.1.15,2013-10-07 18:23:00,
2013-10-07 13:27:00,67.3,50.6,29.99,WSW,246,10.0,12.0,55,0.00,,,0.00,Wunderground v.1.15,2013-10-07 18:27:00,
2013-10-07 13:32:00,67.8,50.5,29.99,WSW,242,5.0,12.0,54,0.00,,,0.00,Wunderground v.1.15,2013-10-07 18:32:00,
2013-10-07 13:37:00,68.1,49.8,29.98,WSW,250,10.0,10.0,52,0.00,,,0.00,Wunderground v.1.15,2013-10-07 18:37:00,
2013-10-07 13:43:00,68.3,50.0,29.98,SW,227,4.0,12.0,52,0.00,,,0.00,Wunderground v.1.15,2013-10-07 18:43:00,
2013-10-07 13:48:00,68.5,50.2,29.98,West,263,4.0,8.0,52,0.00,,,0.00,Wunderground v.1.15,2013-10-07 18:48:00,
2013-10-07 13:53:00,69.0,49.6,29.98,WSW,240,2.0,9.0,50,0.00,,,0.00,Wunderground v.1.15,2013-10-07 18:53:00,
2013-10-07 13:58:00,69.6,49.6,29.98,WSW,254,7.0,11.0,49,0.00,,,0.00,Wunderground v.1.15,2013-10-07 18:58:00,
2013-10-07 14:03:00,69.9,49.3,29.97,WSW,253,4.0,11.0,48,0.00,,,0.00,Wunderground v.1.15,2013-10-07 19:03:00,
2013-10-07 14:08:00,70.1,49.5,29.98,SW,229,7.0,9.0,48,0.00,,,0.00,Wunderground v.1.15,2013-10-07 19:08:00,
2013-10-07 14:13:00,70.4,49.8,29.97,SW,230,4.0,10.0,48,0.00,,,0.00,Wunderground v.1.15,2013-10-07 19:13:00,
2013-10-07 14:18:00,70.5,48.7,29.97,West,267,6.0,8.0,46,0.00,,,0.00,Wunderground v.1.15,2013-10-07 19:18:00,
2013-10-07 14:23:00,70.7,48.3,29.97,SW,218,8.0,10.0,45,0.00,,,0.00,Wunderground v.1.15,2013-10-07 19:23:00,
2013-10-07 14:28:00,70.9,48.5,29.97,SW,229,6.0,9.0,45,0.00,,,0.00,Wunderground v.1.15,2013-10-07 19:28:00,
2013-10-07 14:33:00,71.2,48.8,29.97,West,265,3.0,10.0,45,0.00,,,0.00,Wunderground v.1.15,2013-10-07 19:33:00,
2013-10-07 14:38:00,71.3,48.9,29.97,WSW,239,6.0,9.0,45,0.00,,,0.00,Wunderground v.1.15,2013-10-07 19:38:00,
2013-10-07 14:43:00,71.5,48.4,29.97,West,268,8.0,13.0,44,0.00,,,0.00,Wunderground v.1.15,2013-10-07 19:43:00,
2013-10-07 14:48:00,71.3,48.9,29.97,WSW,243,9.0,13.0,45,0.00,,,0.00,Wunderground v.1.15,2013-10-07 19:48:00,
2013-10-07 14:54:00,71.4,48.9,29.97,SW,234,3.0,13.0,45,0.00,,,0.00,Wunderground v.1.15,2013-10-07 19:54:00,
2013-10-07 14:59:00,71.9,48.2,29.97,West,269,6.0,11.0,43,0.00,,,0.00,Wunderground v.1.15,2013-10-07 19:59:00,
2013-10-07 15:04:00,72.2,48.5,29.97,West,271,7.0,11.0,43,0.00,,,0.00,Wunderground v.1.15,2013-10-07 20:04:00,
2013-10-07 15:09:00,72.3,48.5,29.97,WSW,254,11.0,13.0,43,0.00,,,0.00,Wunderground v.1.15,2013-10-07 20:09:00,
2013-10-07 15:14:00,72.3,47.9,29.96,WSW,238,3.0,13.0,42,0.00,,,0.00,Wunderground v.1.15,2013-10-07 20:14:00,
2013-10-07 15:19:00,72.4,48.0,29.96,WSW,257,9.0,9.0,42,0.00,,,0.00,Wunderground v.1.15,2013-10-07 20:19:00,
2013-10-07 15:24:00,72.3,48.5,29.96,West,274,6.0,13.0,43,0.00,,,0.00,Wunderground v.1.15,2013-10-07 20:24:00,
2013-10-07 15:29:00,72.5,47.5,29.96,WSW,257,5.0,12.0,41,0.00,,,0.00,Wunderground v.1.15,2013-10-07 20:29:00,
2013-10-07 15:34:00,72.4,47.4,29.96,West,277,8.0,12.0,41,0.00,,,0.00,Wunderground v.1.15,2013-10-07 20:34:00,
2013-10-07 15:39:00,72.4,47.4,29.96,West,263,7.0,8.0,41,0.00,,,0.00,Wunderground v.1.15,2013-10-07 20:39:00,
2013-10-07 15:44:00,72.6,47.5,29.96,WNW,285,6.0,10.0,41,0.00,,,0.00,Wunderground v.1.15,2013-10-07 20:44:00,
2013-10-07 15:49:00,72.9,47.8,29.96,SW,232,5.0,9.0,41,0.00,,,0.00,Wunderground v.1.15,2013-10-07 20:49:00,
2013-10-07 15:54:00,73.3,46.8,29.95,NW,304,7.0,9.0,39,0.00,,,0.00,Wunderground v.1.15,2013-10-07 20:54:00,
2013-10-07 15:59:00,73.2,47.4,29.95,West,270,4.0,11.0,40,0.00,,,0.00,Wunderground v.1.15,2013-10-07 20:59:00,
2013-10-07 16:04:00,73.3,46.8,29.95,WSW,244,5.0,11.0,39,0.00,,,0.00,Wunderground v.1.15,2013-10-07 21:04:00,
2013-10-07 16:09:00,73.5,47.0,29.95,West,263,9.0,11.0,39,0.00,,,0.00,Wunderground v.1.15,2013-10-07 21:09:00,
2013-10-07 16:14:00,73.7,46.5,29.95,WSW,242,8.0,11.0,38,0.00,,,0.00,Wunderground v.1.15,2013-10-07 21:14:00,
2013-10-07 16:19:00,73.7,46.5,29.95,SSW,194,6.0,7.0,38,0.00,,,0.00,Wunderground v.1.15,2013-10-07 21:19:00,
2013-10-07 16:24:00,73.9,47.4,29.95,SW,216,5.0,12.0,39,0.00,,,0.00,Wunderground v.1.15,2013-10-07 21:24:00,
2013-10-07 16:29:00,73.9,46.7,29.95,SW,223,4.0,9.0,38,0.00,,,0.00,Wunderground v.1.15,2013-10-07 21:29:00,
2013-10-07 16:34:00,73.9,46.0,29.95,West,268,4.0,9.0,37,0.00,,,0.00,Wunderground v.1.15,2013-10-07 21:34:00,
2013-10-07 16:39:00,73.9,46.0,29.95,SSW,193,6.0,9.0,37,0.00,,,0.00,Wunderground v.1.15,2013-10-07 21:39:00,
2013-10-07 16:44:00,73.9,46.0,29.95,WSW,238,4.0,11.0,37,0.00,,,0.00,Wunderground v.1.15,2013-10-07 21:44:00,
2013-10-07 16:49:00,73.9,47.4,29.94,WSW,258,3.0,6.0,39,0.00,,,0.00,Wunderground v.1.15,2013-10-07 21:49:00,
2013-10-07 16:54:00,74.0,46.1,29.94,West,265,6.0,8.0,37,0.00,,,0.00,Wunderground v.1.15,2013-10-07 21:54:00,
2013-10-07 16:59:00,74.0,46.1,29.94,SW,223,4.0,6.0,37,0.00,,,0.00,Wunderground v.1.15,2013-10-07 21:59:00,
2013-10-07 17:04:00,74.0,45.3,29.94,WSW,247,8.0,9.0,36,0.00,,,0.00,Wunderground v.1.15,2013-10-07 22:04:00,
2013-10-07 17:09:00,74.0,45.3,29.94,West,279,4.0,10.0,36,0.00,,,0.00,Wunderground v.1.15,2013-10-07 22:09:00,
2013-10-07 17:14:00,73.8,45.2,29.94,WSW,239,6.0,10.0,36,0.00,,,0.00,Wunderground v.1.15,2013-10-07 22:14:00,
2013-10-07 17:19:00,73.6,45.7,29.94,SW,228,4.0,8.0,37,0.00,,,0.00,Wunderground v.1.15,2013-10-07 22:19:00,
2013-10-07 17:24:00,73.6,46.4,29.93,SSW,207,7.0,8.0,38,0.00,,,0.00,Wunderground v.1.15,2013-10-07 22:24:00,
2013-10-07 17:29:00,73.4,46.2,29.93,SW,215,5.0,10.0,38,0.00,,,0.00,Wunderground v.1.15,2013-10-07 22:29:00,
2013-10-07 17:34:00,73.2,46.1,29.93,SSW,202,5.0,10.0,38,0.00,,,0.00,Wunderground v.1.15,2013-10-07 22:34:00,
2013-10-07 17:39:00,73.0,45.9,29.93,SSW,209,6.0,7.0,38,0.00,,,0.00,Wunderground v.1.15,2013-10-07 22:39:00,
2013-10-07 17:44:00,72.8,45.7,29.94,WSW,243,6.0,7.0,38,0.00,,,0.00,Wunderground v.1.15,2013-10-07 22:44:00,
2013-10-07 17:49:00,72.6,46.2,29.94,SSW,204,4.0,7.0,39,0.00,,,0.00,Wunderground v.1.15,2013-10-07 22:49:00,
2013-10-07 17:54:00,72.2,45.9,29.94,SSW,207,6.0,8.0,39,0.00,,,0.00,Wunderground v.1.15,2013-10-07 22:54:00,
2013-10-07 17:59:00,71.9,45.6,29.94,SSW,201,3.0,8.0,39,0.00,,,0.00,Wunderground v.1.15,2013-10-07 22:59:00,
2013-10-07 18:04:00,71.6,45.3,29.94,SSW,212,5.0,8.0,39,0.00,,,0.00,Wunderground v.1.15,2013-10-07 23:04:00,
2013-10-07 18:09:00,71.2,46.3,29.94,SSW,209,3.0,5.0,41,0.00,,,0.00,Wunderground v.1.15,2013-10-07 23:09:00,
2013-10-07 18:14:00,70.9,46.0,29.93,SSW,209,6.0,6.0,41,0.00,,,0.00,Wunderground v.1.15,2013-10-07 23:14:00,
2013-10-07 18:19:00,70.4,46.2,29.94,SSW,205,5.0,6.0,42,0.00,,,0.00,Wunderground v.1.15,2013-10-07 23:19:00,
2013-10-07 18:24:00,69.9,45.8,29.94,SW,215,4.0,6.0,42,0.00,,,0.00,Wunderground v.1.15,2013-10-07 23:24:00,
2013-10-07 18:29:00,69.4,45.9,29.94,SSW,198,4.0,6.0,43,0.00,,,0.00,Wunderground v.1.15,2013-10-07 23:29:00,
2013-10-07 18:34:00,68.8,46.0,29.94,SSW,202,4.0,6.0,44,0.00,,,0.00,Wunderground v.1.15,2013-10-07 23:34:00,
2013-10-07 18:39:00,68.2,46.0,29.94,SSW,200,3.0,5.0,45,0.00,,,0.00,Wunderground v.1.15,2013-10-07 23:39:00,
2013-10-07 18:45:00,67.5,45.4,29.94,SSW,202,4.0,6.0,45,0.00,,,0.00,Wunderground v.1.15,2013-10-07 23:45:00,
2013-10-07 18:50:00,66.8,45.3,29.94,SSW,194,4.0,6.0,46,0.00,,,0.00,Wunderground v.1.15,2013-10-07 23:50:00,
2013-10-07 18:55:00,66.1,45.3,29.94,South,189,5.0,6.0,47,0.00,,,0.00,Wunderground v.1.15,2013-10-07 23:55:00,
2013-10-07 19:00:00,65.4,45.2,29.94,SSW,199,4.0,5.0,48,0.00,,,0.00,Wunderground v.1.15,2013-10-08 00:00:00,
2013-10-07 19:05:00,64.8,45.2,29.94,SSW,200,4.0,5.0,49,0.00,,,0.00,Wunderground v.1.15,2013-10-08 00:05:00,
2013-10-07 19:10:00,64.1,45.6,29.94,SSW,193,4.0,5.0,51,0.00,,,0.00,Wunderground v.1.15,2013-10-08 00:10:00,
2013-10-07 19:15:00,63.5,45.6,29.94,SSW,192,4.0,5.0,52,0.00,,,0.00,Wunderground v.1.15,2013-10-08 00:15:00,
2013-10-07 19:20:00,62.9,45.5,29.94,SSW,195,2.0,5.0,53,0.00,,,0.00,Wunderground v.1.15,2013-10-08 00:20:00,
2013-10-07 19:25:00,62.4,45.5,29.94,South,187,2.0,5.0,54,0.00,,,0.00,Wunderground v.1.15,2013-10-08 00:25:00,
2013-10-07 19:30:00,61.9,45.5,29.94,South,187,2.0,3.0,55,0.00,,,0.00,Wunderground v.1.15,2013-10-08 00:30:00,
2013-10-07 19:35:00,61.4,45.6,29.95,South,187,2.0,3.0,56,0.00,,,0.00,Wunderground v.1.15,2013-10-08 00:35:00,
2013-10-07 19:40:00,61.2,45.8,29.95,South,188,2.0,3.0,57,0.00,,,0.00,Wunderground v.1.15,2013-10-08 00:40:00,
2013-10-07 19:45:00,60.8,45.5,29.94,SSW,193,3.0,3.0,57,0.00,,,0.00,Wunderground v.1.15,2013-10-08 00:45:00,
2013-10-07 19:50:00,60.5,45.6,29.95,SSW,193,3.0,3.0,58,0.00,,,0.00,Wunderground v.1.15,2013-10-08 00:50:00,
2013-10-07 19:55:00,60.2,45.4,29.95,SSW,192,2.0,3.0,58,0.00,,,0.00,Wunderground v.1.15,2013-10-08 00:55:00,
2013-10-07 20:00:00,59.9,45.5,29.95,SSW,192,2.0,3.0,59,0.00,,,0.00,Wunderground v.1.15,2013-10-08 01:00:00,
2013-10-07 20:05:00,59.7,45.3,29.95,SSW,192,2.0,3.0,59,0.00,,,0.00,Wunderground v.1.15,2013-10-08 01:05:00,
2013-10-07 20:10:00,59.4,45.5,29.95,SSW,192,1.0,2.0,60,0.00,,,0.00,Wunderground v.1.15,2013-10-08 01:10:00,
2013-10-07 20:15:00,59.2,45.3,29.95,South,177,3.0,4.0,60,0.00,,,0.00,Wunderground v.1.15,2013-10-08 01:15:00,
2013-10-07 20:20:00,59.0,45.6,29.95,SSE,161,4.0,5.0,61,0.00,,,0.00,Wunderground v.1.15,2013-10-08 01:20:00,
2013-10-07 20:25:00,58.8,45.8,29.95,SSE,161,4.0,5.0,62,0.00,,,0.00,Wunderground v.1.15,2013-10-08 01:25:00,
2013-10-07 20:30:00,58.6,45.6,29.95,SSE,161,5.0,5.0,62,0.00,,,0.00,Wunderground v.1.15,2013-10-08 01:30:00,
2013-10-07 20:35:00,58.4,45.4,29.95,SSE,161,4.0,5.0,62,0.00,,,0.00,Wunderground v.1.15,2013-10-08 01:35:00,
2013-10-07 20:40:00,58.2,45.7,29.95,SSE,161,4.0,5.0,63,0.00,,,0.00,Wunderground v.1.15,2013-10-08 01:40:00,
2013-10-07 20:45:00,58.1,45.6,29.95,SSE,161,4.0,5.0,63,0.00,,,0.00,Wunderground v.1.15,2013-10-08 01:45:00,
2013-10-07 20:51:00,57.9,45.8,29.95,SSE,161,4.0,5.0,64,0.00,,,0.00,Wunderground v.1.15,2013-10-08 01:51:00,
2013-10-07 20:56:00,57.8,45.7,29.95,SSE,161,4.0,5.0,64,0.00,,,0.00,Wunderground v.1.15,2013-10-08 01:56:00,
2013-10-07 21:01:00,57.8,45.7,29.95,SE,144,3.0,4.0,64,0.00,,,0.00,Wunderground v.1.15,2013-10-08 02:01:00,
2013-10-07 21:06:00,57.6,45.9,29.95,SE,144,3.0,4.0,65,0.00,,,0.00,Wunderground v.1.15,2013-10-08 02:06:00,
2013-10-07 21:11:00,57.3,46.0,29.95,SE,144,3.0,4.0,66,0.00,,,0.00,Wunderground v.1.15,2013-10-08 02:11:00,
2013-10-07 21:16:00,56.9,45.7,29.95,SSE,148,3.0,4.0,66,0.00,,,0.00,Wunderground v.1.15,2013-10-08 02:16:00,
2013-10-07 21:21:00,56.6,45.8,29.95,SSE,150,3.0,4.0,67,0.00,,,0.00,Wunderground v.1.15,2013-10-08 02:21:00,
2013-10-07 21:26:00,56.2,45.8,29.95,SSE,153,3.0,4.0,68,0.00,,,0.00,Wunderground v.1.15,2013-10-08 02:26:00,
2013-10-07 21:31:00,55.8,45.8,29.95,SSE,153,3.0,4.0,69,0.00,,,0.00,Wunderground v.1.15,2013-10-08 02:31:00,
2013-10-07 21:36:00,55.5,45.5,29.95,SSE,153,3.0,4.0,69,0.00,,,0.00,Wunderground v.1.15,2013-10-08 02:36:00,
2013-10-07 21:41:00,55.2,45.6,29.95,SSE,148,3.0,4.0,70,0.00,,,0.00,Wunderground v.1.15,2013-10-08 02:41:00,
2013-10-07 21:46:00,55.0,45.8,29.95,SE,144,3.0,4.0,71,0.00,,,0.00,Wunderground v.1.15,2013-10-08 02:46:00,
2013-10-07 21:51:00,54.8,45.6,29.95,SSE,151,3.0,4.0,71,0.00,,,0.00,Wunderground v.1.15,2013-10-08 02:51:00,
2013-10-07 21:56:00,54.6,45.4,29.95,SSE,150,4.0,5.0,71,0.00,,,0.00,Wunderground v.1.15,2013-10-08 02:56:00,
2013-10-07 22:01:00,54.4,45.6,29.96,SSE,151,3.0,4.0,72,0.00,,,0.00,Wunderground v.1.15,2013-10-08 03:01:00,
2013-10-07 22:06:00,54.2,45.4,29.95,SSE,150,3.0,4.0,72,0.00,,,0.00,Wunderground v.1.15,2013-10-08 03:06:00,
2013-10-07 22:11:00,53.9,45.1,29.95,SSE,153,3.0,4.0,72,0.00,,,0.00,Wunderground v.1.15,2013-10-08 03:11:00,
2013-10-07 22:17:00,53.7,45.2,29.95,SSE,152,4.0,4.0,73,0.00,,,0.00,Wunderground v.1.15,2013-10-08 03:17:00,
2013-10-07 22:21:00,53.5,45.4,29.95,SSE,151,3.0,4.0,74,0.00,,,0.00,Wunderground v.1.15,2013-10-08 03:21:00,
2013-10-07 22:27:00,53.3,45.2,29.95,SSE,159,4.0,4.0,74,0.00,,,0.00,Wunderground v.1.15,2013-10-08 03:27:00,
2013-10-07 22:32:00,53.1,45.0,29.96,SSE,162,2.0,5.0,74,0.00,,,0.00,Wunderground v.1.15,2013-10-08 03:32:00,
2013-10-07 22:37:00,53.0,44.9,29.95,SSE,159,4.0,4.0,74,0.00,,,0.00,Wunderground v.1.15,2013-10-08 03:37:00,
2013-10-07 22:42:00,52.7,44.6,29.95,SSE,161,4.0,5.0,74,0.00,,,0.00,Wunderground v.1.15,2013-10-08 03:42:00,
2013-10-07 22:47:00,52.4,44.7,29.95,SSE,161,5.0,5.0,75,0.00,,,0.00,Wunderground v.1.15,2013-10-08 03:47:00,
2013-10-07 22:52:00,52.2,44.5,29.95,SSE,154,4.0,5.0,75,0.00,,,0.00,Wunderground v.1.15,2013-10-08 03:52:00,
2013-10-07 22:57:00,51.9,44.6,29.95,SSE,148,3.0,4.0,76,0.00,,,0.00,Wunderground v.1.15,2013-10-08 03:57:00,
2013-10-07 23:01:00,51.9,44.6,29.95,SE,144,4.0,5.0,76,0.00,,,0.00,Wunderground v.1.15,2013-10-08 04:01:00,
2013-10-07 23:06:00,51.8,44.5,29.95,SE,143,4.0,5.0,76,0.00,,,0.00,Wunderground v.1.15,2013-10-08 04:06:00,
2013-10-07 23:11:00,51.9,44.2,29.95,SSE,155,4.0,5.0,75,0.00,,,0.00,Wunderground v.1.15,2013-10-08 04:11:00,
2013-10-07 23:16:00,51.8,44.1,29.95,SSE,153,4.0,4.0,75,0.00,,,0.00,Wunderground v.1.15,2013-10-08 04:16:00,
2013-10-07 23:21:00,51.7,44.0,29.95,SSE,157,5.0,6.0,75,0.00,,,0.00,Wunderground v.1.15,2013-10-08 04:21:00,
2013-10-07 23:26:00,51.5,43.8,29.95,SSE,158,3.0,4.0,75,0.00,,,0.00,Wunderground v.1.15,2013-10-08 04:26:00,
2013-10-07 23:31:00,51.3,44.0,29.95,SSE,158,5.0,6.0,76,0.00,,,0.00,Wunderground v.1.15,2013-10-08 04:31:00,
2013-10-07 23:36:00,51.0,43.7,29.94,SSE,147,4.0,4.0,76,0.00,,,0.00,Wunderground v.1.15,2013-10-08 04:36:00,
2013-10-07 23:41:00,50.7,43.8,29.94,SSE,152,3.0,5.0,77,0.00,,,0.00,Wunderground v.1.15,2013-10-08 04:41:00,
2013-10-07 23:46:00,50.5,43.6,29.94,SSE,149,4.0,4.0,77,0.00,,,0.00,Wunderground v.1.15,2013-10-08 04:46:00,
2013-10-07 23:51:00,50.3,43.7,29.94,SSE,152,4.0,6.0,78,0.00,,,0.00,Wunderground v.1.15,2013-10-08 04:51:00,
2013-10-07 23:56:00,50.0,43.4,29.94,SSE,153,4.0,4.0,78,0.00,,,0.00,Wunderground v.1.15,2013-10-08 04:56:00,